sensor_id;sensor_type;location;lat;lon;timestamp;pressure;altitude;pressure_sealevel;temperature;humidity
75359;BME280;64046;51.978;5.934;2023-04-24T00:01:40;99775.72;;;14.64;100.00
75359;BME280;64046;51.978;5.934;2023-04-24T00:04:09;99769.34;;;14.67;100.00
75359;BME280;64046;51.978;5.934;2023-04-24T00:06:40;99777.03;;;14.70;100.00
75359;BME280;64046;51.978;5.934;2023-04-24T00:09:12;99772.22;;;14.75;100.00
75359;BME280;64046;51.978;5.934;2023-04-24T00:11:41;99777.50;;;14.75;100.00
75359;BME280;64046;51.978;5.934;2023-04-24T00:14:10;99782.78;;;14.75;100.00
75359;BME280;64046;51.978;5.934;2023-04-24T00:16:40;99777.75;;;14.72;100.00
75359;BME280;64046;51.978;5.934;2023-04-24T00:19:09;99787.69;;;14.68;100.00
75359;BME280;64046;51.978;5.934;2023-04-24T00:21:38;99785.78;;;14.70;100.00
75359;BME280;64046;51.978;5.934;2023-04-24T00:24:08;99789.63;;;14.66;100.00
75359;BME280;64046;51.978;5.934;2023-04-24T00:26:40;99787.69;;;14.80;100.00
75359;BME280;64046;51.978;5.934;2023-04-24T00:29:09;99793.03;;;14.56;100.00
75359;BME280;64046;51.978;5.934;2023-04-24T00:31:38;99792.09;;;14.57;100.00
75359;BME280;64046;51.978;5.934;2023-04-24T00:34:08;99797.38;;;14.57;100.00
75359;BME280;64046;51.978;5.934;2023-04-24T00:36:37;99805.81;;;14.62;100.00
75359;BME280;64046;51.978;5.934;2023-04-24T00:39:06;99797.78;;;14.63;100.00
75359;BME280;64046;51.978;5.934;2023-04-24T00:41:36;99805.31;;;14.68;100.00
75359;BME280;64046;51.978;5.934;2023-04-24T00:44:08;99802.19;;;14.85;100.00
75359;BME280;64046;51.978;5.934;2023-04-24T00:46:37;99799.66;;;14.73;100.00
75359;BME280;64046;51.978;5.934;2023-04-24T00:49:07;99800.41;;;14.75;100.00
75359;BME280;64046;51.978;5.934;2023-04-24T00:51:36;99804.94;;;14.73;100.00
75359;BME280;64046;51.978;5.934;2023-04-24T00:54:06;99798.22;;;14.68;100.00
75359;BME280;64046;51.978;5.934;2023-04-24T00:56:36;99806.38;;;14.65;100.00
75359;BME280;64046;51.978;5.934;2023-04-24T00:59:08;99796.06;;;14.62;100.00
75359;BME280;64046;51.978;5.934;2023-04-24T01:01:37;99800.78;;;14.70;100.00
75359;BME280;64046;51.978;5.934;2023-04-24T01:04:08;99789.38;;;14.69;100.00
75359;BME280;64046;51.978;5.934;2023-04-24T01:06:39;99799.91;;;14.69;100.00
75359;BME280;64046;51.978;5.934;2023-04-24T01:09:09;99795.38;;;14.72;100.00
75359;BME280;64046;51.978;5.934;2023-04-24T01:11:40;99799.44;;;14.76;100.00
75359;BME280;64046;51.978;5.934;2023-04-24T01:14:14;99800.28;;;14.87;100.00
75359;BME280;64046;51.978;5.934;2023-04-24T01:16:43;99804.25;;;14.70;100.00
75359;BME280;64046;51.978;5.934;2023-04-24T01:19:13;99804.94;;;14.73;100.00
75359;BME280;64046;51.978;5.934;2023-04-24T01:21:45;99801.22;;;14.75;100.00
75359;BME280;64046;51.978;5.934;2023-04-24T01:24:20;99801.72;;;14.80;100.00
75359;BME280;64046;51.978;5.934;2023-04-24T01:26:49;99792.25;;;14.66;100.00
75359;BME280;64046;51.978;5.934;2023-04-24T01:29:19;99791.31;;;14.67;100.00
75359;BME280;64046;51.978;5.934;2023-04-24T01:31:48;99801.44;;;14.61;100.00
75359;BME280;64046;51.978;5.934;2023-04-24T01:34:17;99808.31;;;14.63;100.00
75359;BME280;64046;51.978;5.934;2023-04-24T01:36:47;99805.81;;;14.73;100.00
75359;BME280;64046;51.978;5.934;2023-04-24T01:39:17;99791.19;;;14.69;100.00
75359;BME280;64046;51.978;5.934;2023-04-24T01:41:49;99799.31;;;14.88;100.00
75359;BME280;64046;51.978;5.934;2023-04-24T01:44:19;99792.25;;;14.78;100.00
75359;BME280;64046;51.978;5.934;2023-04-24T01:46:48;99794.16;;;14.76;100.00
75359;BME280;64046;51.978;5.934;2023-04-24T01:49:17;99788.06;;;14.75;100.00
75359;BME280;64046;51.978;5.934;2023-04-24T01:51:46;99800.28;;;14.76;100.00
75359;BME280;64046;51.978;5.934;2023-04-24T01:54:16;99794.88;;;14.78;100.00
75359;BME280;64046;51.978;5.934;2023-04-24T01:56:45;99805.69;;;14.75;100.00
75359;BME280;64046;51.978;5.934;2023-04-24T01:59:17;99799.91;;;14.81;100.00
75359;BME280;64046;51.978;5.934;2023-04-24T02:01:47;99795.78;;;14.54;100.00
75359;BME280;64046;51.978;5.934;2023-04-24T02:04:19;99786.94;;;14.55;100.00
75359;BME280;64046;51.978;5.934;2023-04-24T02:06:48;99792.81;;;14.59;100.00
75359;BME280;64046;51.978;5.934;2023-04-24T02:09:17;99799.53;;;14.63;100.00
75359;BME280;64046;51.978;5.934;2023-04-24T02:11:46;99793.94;;;14.67;100.00
75359;BME280;64046;51.978;5.934;2023-04-24T02:14:18;99789.00;;;14.85;100.00
75359;BME280;64046;51.978;5.934;2023-04-24T02:16:47;99781.69;;;14.66;100.00
75359;BME280;64046;51.978;5.934;2023-04-24T02:19:16;99784.97;;;14.70;100.00
75359;BME280;64046;51.978;5.934;2023-04-24T02:21:45;99783.25;;;14.69;100.00
75359;BME280;64046;51.978;5.934;2023-04-24T02:24:14;99788.53;;;14.69;100.00
75359;BME280;64046;51.978;5.934;2023-04-24T02:26:44;99792.88;;;14.70;100.00
75359;BME280;64046;51.978;5.934;2023-04-24T02:29:13;99787.69;;;14.68;100.00
75359;BME280;64046;51.978;5.934;2023-04-24T02:31:44;99787.22;;;14.86;100.00
75359;BME280;64046;51.978;5.934;2023-04-24T02:34:14;99795.25;;;14.73;100.00
75359;BME280;64046;51.978;5.934;2023-04-24T02:36:43;99793.56;;;14.72;100.00
75359;BME280;64046;51.978;5.934;2023-04-24T02:39:15;99790.22;;;14.70;100.00
75359;BME280;64046;51.978;5.934;2023-04-24T02:41:45;99790.69;;;14.64;100.00
75359;BME280;64046;51.978;5.934;2023-04-24T02:44:16;99788.03;;;14.64;100.00
75359;BME280;64046;51.978;5.934;2023-04-24T02:46:48;99786.25;;;14.76;100.00
75359;BME280;64046;51.978;5.934;2023-04-24T02:49:17;99785.03;;;14.57;100.00
75359;BME280;64046;51.978;5.934;2023-04-24T02:51:47;99781.53;;;14.57;100.00
75359;BME280;64046;51.978;5.934;2023-04-24T02:54:16;99788.75;;;14.54;100.00
75359;BME280;64046;51.978;5.934;2023-04-24T02:56:45;99794.13;;;14.53;100.00
75359;BME280;64046;51.978;5.934;2023-04-24T02:59:14;99787.06;;;14.53;100.00
75359;BME280;64046;51.978;5.934;2023-04-24T03:01:43;99788.25;;;14.49;100.00
75359;BME280;64046;51.978;5.934;2023-04-24T03:04:15;99789.50;;;14.68;100.00
75359;BME280;64046;51.978;5.934;2023-04-24T03:06:46;99797.59;;;14.53;100.00
75359;BME280;64046;51.978;5.934;2023-04-24T03:09:18;99799.75;;;14.48;100.00
75359;BME280;64046;51.978;5.934;2023-04-24T03:11:47;99798.69;;;14.51;100.00
75359;BME280;64046;51.978;5.934;2023-04-24T03:14:16;99807.06;;;14.45;100.00
75359;BME280;64046;51.978;5.934;2023-04-24T03:16:45;99800.84;;;14.46;100.00
75359;BME280;64046;51.978;5.934;2023-04-24T03:19:17;99796.44;;;14.69;100.00
75359;BME280;64046;51.978;5.934;2023-04-24T03:21:57;99790.31;;;14.57;100.00
75359;BME280;64046;51.978;5.934;2023-04-24T03:24:27;99798.94;;;14.59;100.00
75359;BME280;64046;51.978;5.934;2023-04-24T03:26:57;99802.19;;;14.63;100.00
75359;BME280;64046;51.978;5.934;2023-04-24T03:29:52;99802.19;;;14.63;100.00
75359;BME280;64046;51.978;5.934;2023-04-24T03:32:26;99806.63;;;14.62;100.00
75359;BME280;64046;51.978;5.934;2023-04-24T03:34:59;99805.19;;;14.69;100.00
75359;BME280;64046;51.978;5.934;2023-04-24T03:37:28;99812.91;;;14.48;100.00
75359;BME280;64046;51.978;5.934;2023-04-24T03:40:17;99812.56;;;14.42;100.00
75359;BME280;64046;51.978;5.934;2023-04-24T03:42:46;99821.91;;;14.34;100.00
75359;BME280;64046;51.978;5.934;2023-04-24T03:45:15;99811.38;;;14.34;100.00
75359;BME280;64046;51.978;5.934;2023-04-24T03:47:48;99813.03;;;14.35;100.00
75359;BME280;64046;51.978;5.934;2023-04-24T03:50:20;99816.28;;;14.50;100.00
75359;BME280;64046;51.978;5.934;2023-04-24T03:52:50;99814.94;;;14.33;100.00
75359;BME280;64046;51.978;5.934;2023-04-24T03:55:30;99821.28;;;14.31;100.00
75359;BME280;64046;51.978;5.934;2023-04-24T03:57:59;99814.56;;;14.27;100.00
75359;BME280;64046;51.978;5.934;2023-04-24T04:00:28;99826.28;;;14.23;100.00
75359;BME280;64046;51.978;5.934;2023-04-24T04:03:19;99820.69;;;14.27;100.00
75359;BME280;64046;51.978;5.934;2023-04-24T04:05:52;99826.47;;;14.44;100.00
75359;BME280;64046;51.978;5.934;2023-04-24T04:08:21;99822.81;;;14.22;100.00
75359;BME280;64046;51.978;5.934;2023-04-24T04:10:50;99830.25;;;14.28;100.00
75359;BME280;64046;51.978;5.934;2023-04-24T04:13:19;99822.34;;;14.28;100.00
75359;BME280;64046;51.978;5.934;2023-04-24T04:15:49;99832.78;;;14.30;100.00
75359;BME280;64046;51.978;5.934;2023-04-24T04:18:19;99828.09;;;14.22;100.00
75359;BME280;64046;51.978;5.934;2023-04-24T04:20:50;99842.22;;;14.21;100.00
75359;BME280;64046;51.978;5.934;2023-04-24T04:23:19;99828.34;;;14.19;100.00
75359;BME280;64046;51.978;5.934;2023-04-24T04:26:00;99837.94;;;14.20;100.00
75359;BME280;64046;51.978;5.934;2023-04-24T04:28:41;99832.41;;;14.23;100.00
75359;BME280;64046;51.978;5.934;2023-04-24T04:31:11;99831.91;;;14.18;100.00
75359;BME280;64046;51.978;5.934;2023-04-24T04:33:41;99828.06;;;14.11;100.00
75359;BME280;64046;51.978;5.934;2023-04-24T04:36:12;99828.72;;;14.26;100.00
75359;BME280;64046;51.978;5.934;2023-04-24T04:38:46;99833.44;;;14.09;100.00
75359;BME280;64046;51.978;5.934;2023-04-24T04:41:44;99826.06;;;14.14;100.00
75359;BME280;64046;51.978;5.934;2023-04-24T04:44:17;99832.84;;;14.06;100.00
75359;BME280;64046;51.978;5.934;2023-04-24T04:46:46;99829.47;;;14.04;100.00
75359;BME280;64046;51.978;5.934;2023-04-24T04:49:24;99831.41;;;14.01;100.00
75359;BME280;64046;51.978;5.934;2023-04-24T04:51:57;99827.72;;;14.15;100.00
75359;BME280;64046;51.978;5.934;2023-04-24T04:54:27;99831.84;;;13.95;100.00
75359;BME280;64046;51.978;5.934;2023-04-24T04:56:57;99825.16;;;13.91;100.00
75359;BME280;64046;51.978;5.934;2023-04-24T04:59:26;99829.56;;;13.91;100.00
75359;BME280;64046;51.978;5.934;2023-04-24T05:02:02;99834.59;;;13.94;100.00
75359;BME280;64046;51.978;5.934;2023-04-24T05:04:31;99833.88;;;13.92;100.00
75359;BME280;64046;51.978;5.934;2023-04-24T05:07:03;99825.53;;;14.09;100.00
75359;BME280;64046;51.978;5.934;2023-04-24T05:09:35;99827.78;;;13.91;100.00
75359;BME280;64046;51.978;5.934;2023-04-24T05:12:05;99834.53;;;13.82;100.00
75359;BME280;64046;51.978;5.934;2023-04-24T05:14:41;99836.47;;;13.80;100.00
75359;BME280;64046;51.978;5.934;2023-04-24T05:17:12;99841.63;;;13.82;100.00
75359;BME280;64046;51.978;5.934;2023-04-24T05:19:41;99846.53;;;13.87;100.00
75359;BME280;64046;51.978;5.934;2023-04-24T05:22:13;99845.91;;;14.07;100.00
75359;BME280;64046;51.978;5.934;2023-04-24T05:24:49;99846.22;;;13.91;100.00
75359;BME280;64046;51.978;5.934;2023-04-24T05:27:35;99854.19;;;13.78;100.00
75359;BME280;64046;51.978;5.934;2023-04-24T05:30:12;99873.56;;;13.77;100.00
75359;BME280;64046;51.978;5.934;2023-04-24T05:32:41;99866.59;;;13.76;100.00
75359;BME280;64046;51.978;5.934;2023-04-24T05:35:11;99875.00;;;13.81;100.00
75359;BME280;64046;51.978;5.934;2023-04-24T05:37:43;99876.91;;;14.04;100.00
75359;BME280;64046;51.978;5.934;2023-04-24T05:40:13;99885.50;;;13.94;100.00
75359;BME280;64046;51.978;5.934;2023-04-24T05:42:42;99886.09;;;13.98;100.00
75359;BME280;64046;51.978;5.934;2023-04-24T05:45:11;99892.81;;;14.02;100.00
75359;BME280;64046;51.978;5.934;2023-04-24T05:47:43;99889.06;;;14.17;100.00
75359;BME280;64046;51.978;5.934;2023-04-24T05:50:13;99903.56;;;14.23;100.00
75359;BME280;64046;51.978;5.934;2023-04-24T05:52:45;99898.22;;;14.36;100.00
75359;BME280;64046;51.978;5.934;2023-04-24T05:55:24;99900.19;;;14.21;100.00
75359;BME280;64046;51.978;5.934;2023-04-24T05:57:53;99901.88;;;14.22;100.00
75359;BME280;64046;51.978;5.934;2023-04-24T06:00:25;99896.13;;;14.28;100.00
75359;BME280;64046;51.978;5.934;2023-04-24T06:03:01;99901.28;;;14.30;100.00
75359;BME280;64046;51.978;5.934;2023-04-24T06:05:32;99904.09;;;14.40;100.00
75359;BME280;64046;51.978;5.934;2023-04-24T06:08:05;99913.47;;;14.55;100.00
75359;BME280;64046;51.978;5.934;2023-04-24T06:10:38;99914.50;;;14.41;100.00
75359;BME280;64046;51.978;5.934;2023-04-24T06:13:08;99915.97;;;14.45;100.00
75359;BME280;64046;51.978;5.934;2023-04-24T06:15:41;99917.66;;;14.46;100.00
75359;BME280;64046;51.978;5.934;2023-04-24T06:18:16;99922.94;;;14.46;100.00
75359;BME280;64046;51.978;5.934;2023-04-24T06:20:47;99933.22;;;14.49;100.00
75359;BME280;64046;51.978;5.934;2023-04-24T06:23:19;99935.69;;;14.64;100.00
75359;BME280;64046;51.978;5.934;2023-04-24T06:25:48;99929.03;;;14.47;100.00
75359;BME280;64046;51.978;5.934;2023-04-24T06:28:17;99941.72;;;14.42;100.00
75359;BME280;64046;51.978;5.934;2023-04-24T06:30:46;99948.78;;;14.41;100.00
75359;BME280;64046;51.978;5.934;2023-04-24T06:33:16;99952.97;;;14.44;100.00
75359;BME280;64046;51.978;5.934;2023-04-24T06:35:45;99955.75;;;14.42;100.00
75359;BME280;64046;51.978;5.934;2023-04-24T06:38:14;99970.25;;;14.48;100.00
75359;BME280;64046;51.978;5.934;2023-04-24T06:40:46;99960.19;;;14.66;100.00
75359;BME280;64046;51.978;5.934;2023-04-24T06:43:15;99962.22;;;14.49;100.00
75359;BME280;64046;51.978;5.934;2023-04-24T06:45:44;99968.97;;;14.53;100.00
75359;BME280;64046;51.978;5.934;2023-04-24T06:48:13;99967.72;;;14.46;100.00
75359;BME280;64046;51.978;5.934;2023-04-24T06:50:43;99982.09;;;14.42;100.00
75359;BME280;64046;51.978;5.934;2023-04-24T06:53:12;99980.19;;;14.44;100.00
75359;BME280;64046;51.978;5.934;2023-04-24T06:55:42;99981.63;;;14.48;100.00
75359;BME280;64046;51.978;5.934;2023-04-24T06:58:14;99986.53;;;14.66;100.00
75359;BME280;64046;51.978;5.934;2023-04-24T07:00:43;99991.75;;;14.54;100.00
75359;BME280;64046;51.978;5.934;2023-04-24T07:03:12;99993.41;;;14.56;100.00
75359;BME280;64046;51.978;5.934;2023-04-24T07:05:42;99990.56;;;14.59;100.00
75359;BME280;64046;51.978;5.934;2023-04-24T07:08:12;99998.75;;;14.67;100.00
75359;BME280;64046;51.978;5.934;2023-04-24T07:10:43;99998.28;;;14.62;100.00
75359;BME280;64046;51.978;5.934;2023-04-24T07:13:15;100005.25;;;14.74;100.00
75359;BME280;64046;51.978;5.934;2023-04-24T07:15:44;100004.81;;;14.56;100.00
75359;BME280;64046;51.978;5.934;2023-04-24T07:18:15;100017.88;;;14.58;100.00
75359;BME280;64046;51.978;5.934;2023-04-24T07:20:44;100020.84;;;14.53;100.00
75359;BME280;64046;51.978;5.934;2023-04-24T07:23:13;100029.31;;;14.45;100.00
75359;BME280;64046;51.978;5.934;2023-04-24T07:25:42;100035.88;;;14.40;100.00
75359;BME280;64046;51.978;5.934;2023-04-24T07:28:11;100039.59;;;14.37;100.00
75359;BME280;64046;51.978;5.934;2023-04-24T07:30:43;100031.00;;;14.46;100.00
75359;BME280;64046;51.978;5.934;2023-04-24T07:33:12;100039.31;;;14.29;100.00
75359;BME280;64046;51.978;5.934;2023-04-24T07:35:41;100036.16;;;14.24;100.00
75359;BME280;64046;51.978;5.934;2023-04-24T07:38:10;100045.75;;;14.25;100.00
75359;BME280;64046;51.978;5.934;2023-04-24T07:40:39;100056.94;;;14.15;100.00
75359;BME280;64046;51.978;5.934;2023-04-24T07:43:08;100061.59;;;14.12;100.00
75359;BME280;64046;51.978;5.934;2023-04-24T07:45:37;100068.03;;;14.08;100.00
75359;BME280;64046;51.978;5.934;2023-04-24T07:48:09;100084.84;;;14.18;100.00
75359;BME280;64046;51.978;5.934;2023-04-24T07:50:40;100082.72;;;13.86;100.00
75359;BME280;64046;51.978;5.934;2023-04-24T07:53:10;100081.47;;;13.79;100.00
75359;BME280;64046;51.978;5.934;2023-04-24T07:55:39;100093.38;;;13.72;100.00
75359;BME280;64046;51.978;5.934;2023-04-24T07:58:08;100096.50;;;13.64;100.00
75359;BME280;64046;51.978;5.934;2023-04-24T08:00:37;100099.34;;;13.61;100.00
75359;BME280;64046;51.978;5.934;2023-04-24T08:03:09;100112.00;;;13.69;100.00
75359;BME280;64046;51.978;5.934;2023-04-24T08:05:38;100114.63;;;13.43;100.00
75359;BME280;64046;51.978;5.934;2023-04-24T08:08:08;100124.50;;;13.39;100.00
75359;BME280;64046;51.978;5.934;2023-04-24T08:10:37;100129.16;;;13.36;100.00
75359;BME280;64046;51.978;5.934;2023-04-24T08:13:06;100151.31;;;13.31;100.00
75359;BME280;64046;51.978;5.934;2023-04-24T08:15:37;100159.41;;;13.28;100.00
75359;BME280;64046;51.978;5.934;2023-04-24T08:18:09;100167.66;;;13.37;100.00
75359;BME280;64046;51.978;5.934;2023-04-24T08:20:39;100165.78;;;13.11;100.00
75359;BME280;64046;51.978;5.934;2023-04-24T08:23:08;100177.25;;;13.10;100.00
75359;BME280;64046;51.978;5.934;2023-04-24T08:25:37;100184.28;;;13.10;100.00
75359;BME280;64046;51.978;5.934;2023-04-24T08:28:08;100196.00;;;13.19;100.00
75359;BME280;64046;51.978;5.934;2023-04-24T08:30:37;100198.88;;;13.01;100.00
75359;BME280;64046;51.978;5.934;2023-04-24T08:33:09;100198.63;;;13.19;100.00
75359;BME280;64046;51.978;5.934;2023-04-24T08:35:39;100210.97;;;13.04;100.00
75359;BME280;64046;51.978;5.934;2023-04-24T08:38:08;100224.13;;;13.04;100.00
75359;BME280;64046;51.978;5.934;2023-04-24T08:40:37;100223.00;;;13.08;100.00
75359;BME280;64046;51.978;5.934;2023-04-24T08:43:06;100236.03;;;13.09;100.00
75359;BME280;64046;51.978;5.934;2023-04-24T08:45:36;100229.00;;;13.10;100.00
75359;BME280;64046;51.978;5.934;2023-04-24T08:48:09;100240.41;;;13.23;100.00
75359;BME280;64046;51.978;5.934;2023-04-24T08:50:40;100246.50;;;13.24;100.00
75359;BME280;64046;51.978;5.934;2023-04-24T08:53:10;100251.44;;;13.15;100.00
75359;BME280;64046;51.978;5.934;2023-04-24T08:55:41;100264.94;;;13.24;100.00
75359;BME280;64046;51.978;5.934;2023-04-24T08:58:12;100263.56;;;13.18;100.00
75359;BME280;64046;51.978;5.934;2023-04-24T09:00:42;100262.72;;;13.18;100.00
75359;BME280;64046;51.978;5.934;2023-04-24T09:03:16;100262.50;;;13.35;100.00
75359;BME280;64046;51.978;5.934;2023-04-24T09:05:47;100268.69;;;13.34;100.00
75359;BME280;64046;51.978;5.934;2023-04-24T09:08:17;100270.28;;;13.37;100.00
75359;BME280;64046;51.978;5.934;2023-04-24T09:10:47;100287.06;;;13.21;100.00
75359;BME280;64046;51.978;5.934;2023-04-24T09:13:16;100286.19;;;13.21;100.00
75359;BME280;64046;51.978;5.934;2023-04-24T09:15:47;100296.28;;;13.14;100.00
75359;BME280;64046;51.978;5.934;2023-04-24T09:18:19;100311.94;;;13.30;100.00
75359;BME280;64046;51.978;5.934;2023-04-24T09:20:57;100302.91;;;13.34;100.00
75359;BME280;64046;51.978;5.934;2023-04-24T09:23:27;100325.66;;;13.21;100.00
75359;BME280;64046;51.978;5.934;2023-04-24T09:25:57;100319.66;;;13.19;100.00
75359;BME280;64046;51.978;5.934;2023-04-24T09:28:29;100328.53;;;13.30;100.00
75359;BME280;64046;51.978;5.934;2023-04-24T09:31:03;100329.03;;;13.37;100.00
75359;BME280;64046;51.978;5.934;2023-04-24T09:33:35;100339.38;;;13.40;100.00
75359;BME280;64046;51.978;5.934;2023-04-24T09:36:05;100334.56;;;13.32;100.00
75359;BME280;64046;51.978;5.934;2023-04-24T09:38:35;100345.47;;;13.41;100.00
75359;BME280;64046;51.978;5.934;2023-04-24T09:41:06;100355.06;;;13.42;100.00
75359;BME280;64046;51.978;5.934;2023-04-24T09:43:36;100362.22;;;13.40;100.00
75359;BME280;64046;51.978;5.934;2023-04-24T09:46:07;100360.03;;;13.46;100.00
75359;BME280;64046;51.978;5.934;2023-04-24T09:48:39;100370.72;;;13.58;100.00
75359;BME280;64046;51.978;5.934;2023-04-24T09:51:08;100364.03;;;13.52;100.00
75359;BME280;64046;51.978;5.934;2023-04-24T09:53:38;100372.31;;;13.60;100.00
75359;BME280;64046;51.978;5.934;2023-04-24T09:56:12;100383.56;;;13.62;100.00
75359;BME280;64046;51.978;5.934;2023-04-24T09:58:41;100382.16;;;13.71;98.75
75359;BME280;64046;51.978;5.934;2023-04-24T10:01:10;100394.38;;;13.72;97.64
75359;BME280;64046;51.978;5.934;2023-04-24T10:03:42;100400.88;;;13.94;97.66
75359;BME280;64046;51.978;5.934;2023-04-24T10:06:12;100399.38;;;13.90;97.12
75359;BME280;64046;51.978;5.934;2023-04-24T10:08:42;100403.28;;;13.84;96.68
75359;BME280;64046;51.978;5.934;2023-04-24T10:11:12;100399.19;;;13.93;95.43
75359;BME280;64046;51.978;5.934;2023-04-24T10:13:41;100407.53;;;13.99;94.99
75359;BME280;64046;51.978;5.934;2023-04-24T10:16:11;100415.69;;;14.09;94.56
75359;BME280;64046;51.978;5.934;2023-04-24T10:18:43;100411.84;;;14.41;92.11
75359;BME280;64046;51.978;5.934;2023-04-24T10:21:13;100404.88;;;14.40;92.13
75359;BME280;64046;51.978;5.934;2023-04-24T10:23:43;100409.13;;;14.55;91.55
75359;BME280;64046;51.978;5.934;2023-04-24T10:26:12;100414.78;;;14.63;89.59
75359;BME280;64046;51.978;5.934;2023-04-24T10:28:45;100426.50;;;14.85;89.09
75359;BME280;64046;51.978;5.934;2023-04-24T10:31:14;100411.22;;;14.90;88.85
75359;BME280;64046;51.978;5.934;2023-04-24T10:33:46;100423.09;;;15.09;86.81
75359;BME280;64046;51.978;5.934;2023-04-24T10:36:16;100422.38;;;15.07;86.86
75359;BME280;64046;51.978;5.934;2023-04-24T10:38:46;100430.50;;;15.16;86.17
75359;BME280;64046;51.978;5.934;2023-04-24T10:41:17;100421.16;;;15.36;84.35
75359;BME280;64046;51.978;5.934;2023-04-24T10:44:04;100429.19;;;15.48;81.01
75359;BME280;64046;51.978;5.934;2023-04-24T10:46:33;100436.72;;;15.15;80.27
75359;BME280;64046;51.978;5.934;2023-04-24T10:49:06;100437.75;;;15.13;76.86
75359;BME280;64046;51.978;5.934;2023-04-24T10:51:46;100437.66;;;15.14;76.03
75359;BME280;64046;51.978;5.934;2023-04-24T10:54:25;100446.00;;;15.08;74.95
75359;BME280;64046;51.978;5.934;2023-04-24T10:57:26;100453.81;;;15.10;74.61
75359;BME280;64046;51.978;5.934;2023-04-24T11:00:15;100460.91;;;15.22;74.26
75359;BME280;64046;51.978;5.934;2023-04-24T11:02:46;100461.94;;;15.07;73.02
75359;BME280;64046;51.978;5.934;2023-04-24T11:05:21;100466.28;;;15.08;73.02
75359;BME280;64046;51.978;5.934;2023-04-24T11:08:12;100473.88;;;15.25;72.22
75359;BME280;64046;51.978;5.934;2023-04-24T11:10:44;100475.25;;;15.18;72.96
75359;BME280;64046;51.978;5.934;2023-04-24T11:13:15;100478.50;;;15.09;72.65
75359;BME280;64046;51.978;5.934;2023-04-24T11:15:45;100477.56;;;14.84;72.99
75359;BME280;64046;51.978;5.934;2023-04-24T11:18:40;100488.97;;;14.97;73.02
75359;BME280;64046;51.978;5.934;2023-04-24T11:21:16;100488.97;;;14.84;73.18
75359;BME280;64046;51.978;5.934;2023-04-24T11:23:45;100491.97;;;14.65;73.65
75359;BME280;64046;51.978;5.934;2023-04-24T11:26:18;100502.88;;;14.86;73.16
75359;BME280;64046;51.978;5.934;2023-04-24T11:28:50;100493.81;;;14.78;72.96
75359;BME280;64046;51.978;5.934;2023-04-24T11:31:38;100511.78;;;15.11;70.73
75359;BME280;64046;51.978;5.934;2023-04-24T11:34:08;100517.00;;;14.85;69.38
75359;BME280;64046;51.978;5.934;2023-04-24T11:36:42;100511.00;;;14.83;70.19
75359;BME280;64046;51.978;5.934;2023-04-24T11:39:12;100510.34;;;14.67;70.78
75359;BME280;64046;51.978;5.934;2023-04-24T11:41:42;100517.00;;;14.73;71.32
75359;BME280;64046;51.978;5.934;2023-04-24T11:44:11;100511.63;;;14.87;71.54
75359;BME280;64046;51.978;5.934;2023-04-24T11:46:40;100514.72;;;14.94;70.93
75359;BME280;64046;51.978;5.934;2023-04-24T11:49:09;100523.69;;;15.04;70.52
75359;BME280;64046;51.978;5.934;2023-04-24T11:51:41;100520.00;;;15.19;68.69
75359;BME280;64046;51.978;5.934;2023-04-24T11:54:10;100520.44;;;15.00;68.16
75359;BME280;64046;51.978;5.934;2023-04-24T11:56:44;100523.81;;;15.15;68.73
75359;BME280;64046;51.978;5.934;2023-04-24T11:59:14;100533.09;;;15.08;69.80
75359;BME280;64046;51.978;5.934;2023-04-24T12:01:44;100540.56;;;15.01;68.06
75359;BME280;64046;51.978;5.934;2023-04-24T12:04:17;100544.88;;;14.90;68.42
75359;BME280;64046;51.978;5.934;2023-04-24T12:07:04;100548.50;;;15.01;68.80
75359;BME280;64046;51.978;5.934;2023-04-24T12:09:41;100562.53;;;14.89;70.78
75359;BME280;64046;51.978;5.934;2023-04-24T12:12:12;100574.00;;;14.61;73.46
75359;BME280;64046;51.978;5.934;2023-04-24T12:14:47;100578.81;;;14.54;75.96
75359;BME280;64046;51.978;5.934;2023-04-24T12:17:16;100576.84;;;14.30;78.10
75359;BME280;64046;51.978;5.934;2023-04-24T12:19:46;100569.13;;;14.27;79.42
75359;BME280;64046;51.978;5.934;2023-04-24T12:22:19;100570.03;;;14.41;80.29
75359;BME280;64046;51.978;5.934;2023-04-24T12:24:58;100568.84;;;14.59;79.50
75359;BME280;64046;51.978;5.934;2023-04-24T12:27:31;100577.78;;;14.57;80.75
75359;BME280;64046;51.978;5.934;2023-04-24T12:30:03;100570.75;;;14.57;81.08
75359;BME280;64046;51.978;5.934;2023-04-24T12:32:33;100579.13;;;14.49;80.69
75359;BME280;64046;51.978;5.934;2023-04-24T12:35:04;100579.66;;;14.69;79.99
75359;BME280;64046;51.978;5.934;2023-04-24T12:37:36;100576.50;;;14.77;79.30
75359;BME280;64046;51.978;5.934;2023-04-24T12:40:09;100584.97;;;14.82;77.67
75359;BME280;64046;51.978;5.934;2023-04-24T12:42:42;100591.78;;;14.99;75.09
75359;BME280;64046;51.978;5.934;2023-04-24T12:45:12;100591.13;;;14.95;74.01
75359;BME280;64046;51.978;5.934;2023-04-24T12:47:43;100595.03;;;15.02;73.76
75359;BME280;64046;51.978;5.934;2023-04-24T12:50:13;100602.25;;;15.13;73.04
75359;BME280;64046;51.978;5.934;2023-04-24T12:52:45;100603.84;;;15.29;72.51
75359;BME280;64046;51.978;5.934;2023-04-24T12:55:14;100605.84;;;15.12;72.00
75359;BME280;64046;51.978;5.934;2023-04-24T12:57:43;100611.00;;;15.14;72.05
75359;BME280;64046;51.978;5.934;2023-04-24T13:00:13;100607.13;;;15.19;72.01
75359;BME280;64046;51.978;5.934;2023-04-24T13:02:42;100611.94;;;15.13;71.65
75359;BME280;64046;51.978;5.934;2023-04-24T13:05:11;100602.03;;;15.16;71.26
75359;BME280;64046;51.978;5.934;2023-04-24T13:07:41;100606.06;;;15.22;70.78
75359;BME280;64046;51.978;5.934;2023-04-24T13:10:13;100612.31;;;15.47;70.31